sensor_id;sensor_type;location;lat;lon;timestamp;P1;durP1;ratioP1;P2;durP2;ratioP2
70322;SDS011;57735;56.264;43.898;2024-03-02T00:00:29;54.47;;;21.92;;
70322;SDS011;57735;56.264;43.898;2024-03-02T00:03:00;51.63;;;21.45;;
70322;SDS011;57735;56.264;43.898;2024-03-02T00:05:31;57.13;;;22.52;;
70322;SDS011;57735;56.264;43.898;2024-03-02T00:08:04;61.40;;;23.67;;
70322;SDS011;57735;56.264;43.898;2024-03-02T00:10:39;65.10;;;23.33;;
70322;SDS011;57735;56.264;43.898;2024-03-02T00:13:11;60.05;;;23.75;;
70322;SDS011;57735;56.264;43.898;2024-03-02T00:15:47;54.67;;;21.77;;
70322;SDS011;57735;56.264;43.898;2024-03-02T00:18:24;56.90;;;23.25;;
70322;SDS011;57735;56.264;43.898;2024-03-02T00:20:57;59.63;;;24.27;;
70322;SDS011;57735;56.264;43.898;2024-03-02T00:23:31;62.17;;;23.45;;
70322;SDS011;57735;56.264;43.898;2024-03-02T00:26:03;53.30;;;21.42;;
70322;SDS011;57735;56.264;43.898;2024-03-02T00:28:36;59.33;;;22.85;;
70322;SDS011;57735;56.264;43.898;2024-03-02T00:31:08;66.10;;;22.70;;
70322;SDS011;57735;56.264;43.898;2024-03-02T00:33:44;65.78;;;24.73;;
70322;SDS011;57735;56.264;43.898;2024-03-02T00:36:26;56.42;;;23.88;;
70322;SDS011;57735;56.264;43.898;2024-03-02T00:38:57;62.03;;;22.77;;
70322;SDS011;57735;56.264;43.898;2024-03-02T00:41:31;57.88;;;23.65;;
70322;SDS011;57735;56.264;43.898;2024-03-02T00:44:04;56.90;;;23.30;;
70322;SDS011;57735;56.264;43.898;2024-03-02T00:46:39;55.95;;;23.75;;
70322;SDS011;57735;56.264;43.898;2024-03-02T00:51:51;59.92;;;24.10;;
70322;SDS011;57735;56.264;43.898;2024-03-02T00:54:25;55.53;;;22.27;;
70322;SDS011;57735;56.264;43.898;2024-03-02T00:56:56;60.38;;;24.35;;
70322;SDS011;57735;56.264;43.898;2024-03-02T00:59:27;59.40;;;22.88;;
70322;SDS011;57735;56.264;43.898;2024-03-02T01:01:58;55.47;;;21.80;;
70322;SDS011;57735;56.264;43.898;2024-03-02T01:04:29;58.08;;;23.75;;
70322;SDS011;57735;56.264;43.898;2024-03-02T01:07:00;56.45;;;22.75;;
70322;SDS011;57735;56.264;43.898;2024-03-02T01:09:30;57.30;;;22.67;;
70322;SDS011;57735;56.264;43.898;2024-03-02T01:12:01;58.95;;;22.73;;
70322;SDS011;57735;56.264;43.898;2024-03-02T01:14:32;60.83;;;24.13;;
70322;SDS011;57735;56.264;43.898;2024-03-02T01:17:03;63.35;;;23.20;;
70322;SDS011;57735;56.264;43.898;2024-03-02T01:19:34;64.68;;;25.60;;
70322;SDS011;57735;56.264;43.898;2024-03-02T01:22:05;60.42;;;24.23;;
70322;SDS011;57735;56.264;43.898;2024-03-02T01:24:36;56.90;;;25.70;;
70322;SDS011;57735;56.264;43.898;2024-03-02T01:27:07;67.90;;;28.08;;
70322;SDS011;57735;56.264;43.898;2024-03-02T01:29:38;63.78;;;27.88;;
70322;SDS011;57735;56.264;43.898;2024-03-02T01:32:08;68.50;;;27.90;;
70322;SDS011;57735;56.264;43.898;2024-03-02T01:34:39;68.20;;;27.45;;
70322;SDS011;57735;56.264;43.898;2024-03-02T01:37:10;67.90;;;26.35;;
70322;SDS011;57735;56.264;43.898;2024-03-02T01:39:42;70.43;;;27.17;;
70322;SDS011;57735;56.264;43.898;2024-03-02T01:42:12;67.65;;;28.17;;
70322;SDS011;57735;56.264;43.898;2024-03-02T01:44:43;70.43;;;28.13;;
70322;SDS011;57735;56.264;43.898;2024-03-02T01:47:14;69.28;;;27.60;;
70322;SDS011;57735;56.264;43.898;2024-03-02T01:49:45;69.53;;;27.98;;
70322;SDS011;57735;56.264;43.898;2024-03-02T01:52:16;71.53;;;27.75;;
70322;SDS011;57735;56.264;43.898;2024-03-02T01:54:46;77.13;;;28.83;;
70322;SDS011;57735;56.264;43.898;2024-03-02T01:57:17;79.50;;;30.45;;
70322;SDS011;57735;56.264;43.898;2024-03-02T01:59:49;75.47;;;26.83;;
70322;SDS011;57735;56.264;43.898;2024-03-02T02:02:21;74.07;;;27.40;;
70322;SDS011;57735;56.264;43.898;2024-03-02T02:04:51;67.28;;;26.00;;
70322;SDS011;57735;56.264;43.898;2024-03-02T02:07:25;73.38;;;23.35;;
70322;SDS011;57735;56.264;43.898;2024-03-02T02:09:59;65.25;;;22.55;;
70322;SDS011;57735;56.264;43.898;2024-03-02T02:12:30;71.47;;;23.50;;
70322;SDS011;57735;56.264;43.898;2024-03-02T02:15:01;57.95;;;21.67;;
70322;SDS011;57735;56.264;43.898;2024-03-02T02:17:35;68.85;;;23.48;;
70322;SDS011;57735;56.264;43.898;2024-03-02T02:20:07;69.53;;;23.15;;
70322;SDS011;57735;56.264;43.898;2024-03-02T02:22:38;71.90;;;24.70;;
70322;SDS011;57735;56.264;43.898;2024-03-02T02:25:09;76.38;;;25.13;;
70322;SDS011;57735;56.264;43.898;2024-03-02T02:27:39;62.58;;;22.25;;
70322;SDS011;57735;56.264;43.898;2024-03-02T02:30:10;64.78;;;22.10;;
70322;SDS011;57735;56.264;43.898;2024-03-02T02:32:42;70.90;;;21.35;;
70322;SDS011;57735;56.264;43.898;2024-03-02T02:35:13;60.47;;;20.65;;
70322;SDS011;57735;56.264;43.898;2024-03-02T02:37:44;63.20;;;21.40;;
70322;SDS011;57735;56.264;43.898;2024-03-02T02:40:17;70.97;;;23.00;;
70322;SDS011;57735;56.264;43.898;2024-03-02T02:42:49;71.53;;;21.70;;
70322;SDS011;57735;56.264;43.898;2024-03-02T02:45:22;61.60;;;22.45;;
70322;SDS011;57735;56.264;43.898;2024-03-02T02:47:53;57.33;;;20.75;;
70322;SDS011;57735;56.264;43.898;2024-03-02T02:50:23;59.95;;;20.15;;
70322;SDS011;57735;56.264;43.898;2024-03-02T02:52:54;74.60;;;24.73;;
70322;SDS011;57735;56.264;43.898;2024-03-02T02:55:25;66.38;;;22.27;;
70322;SDS011;57735;56.264;43.898;2024-03-02T02:57:56;68.40;;;23.33;;
70322;SDS011;57735;56.264;43.898;2024-03-02T03:00:26;67.93;;;22.83;;
70322;SDS011;57735;56.264;43.898;2024-03-02T03:02:58;76.10;;;24.58;;
70322;SDS011;57735;56.264;43.898;2024-03-02T03:05:31;71.40;;;23.77;;
70322;SDS011;57735;56.264;43.898;2024-03-02T03:08:04;76.07;;;25.05;;
70322;SDS011;57735;56.264;43.898;2024-03-02T03:10:35;69.88;;;23.52;;
70322;SDS011;57735;56.264;43.898;2024-03-02T03:13:07;75.03;;;25.10;;
70322;SDS011;57735;56.264;43.898;2024-03-02T03:15:41;83.73;;;27.90;;
70322;SDS011;57735;56.264;43.898;2024-03-02T03:18:11;90.60;;;25.77;;
70322;SDS011;57735;56.264;43.898;2024-03-02T03:20:42;72.28;;;27.17;;
70322;SDS011;57735;56.264;43.898;2024-03-02T03:23:13;76.88;;;24.73;;
70322;SDS011;57735;56.264;43.898;2024-03-02T03:25:47;93.50;;;26.65;;
70322;SDS011;57735;56.264;43.898;2024-03-02T03:28:18;83.13;;;27.17;;
70322;SDS011;57735;56.264;43.898;2024-03-02T03:30:51;83.97;;;26.00;;
70322;SDS011;57735;56.264;43.898;2024-03-02T03:33:22;82.38;;;24.63;;
70322;SDS011;57735;56.264;43.898;2024-03-02T03:35:53;75.90;;;26.27;;
70322;SDS011;57735;56.264;43.898;2024-03-02T03:38:24;72.22;;;25.13;;
70322;SDS011;57735;56.264;43.898;2024-03-02T03:40:57;81.57;;;25.67;;
70322;SDS011;57735;56.264;43.898;2024-03-02T03:43:28;77.47;;;26.10;;
70322;SDS011;57735;56.264;43.898;2024-03-02T03:45:59;78.80;;;25.15;;
70322;SDS011;57735;56.264;43.898;2024-03-02T03:48:32;70.10;;;23.58;;
70322;SDS011;57735;56.264;43.898;2024-03-02T03:51:03;77.10;;;25.88;;
70322;SDS011;57735;56.264;43.898;2024-03-02T03:53:34;71.47;;;25.52;;
70322;SDS011;57735;56.264;43.898;2024-03-02T03:56:05;74.72;;;24.73;;
70322;SDS011;57735;56.264;43.898;2024-03-02T03:58:36;64.47;;;22.58;;
70322;SDS011;57735;56.264;43.898;2024-03-02T04:01:07;69.28;;;24.33;;
70322;SDS011;57735;56.264;43.898;2024-03-02T04:03:38;58.50;;;21.60;;
70322;SDS011;57735;56.264;43.898;2024-03-02T04:06:12;60.50;;;22.80;;
70322;SDS011;57735;56.264;43.898;2024-03-02T04:08:43;62.38;;;22.27;;
70322;SDS011;57735;56.264;43.898;2024-03-02T04:11:14;55.85;;;21.23;;
70322;SDS011;57735;56.264;43.898;2024-03-02T04:13:45;57.22;;;22.17;;
70322;SDS011;57735;56.264;43.898;2024-03-02T04:16:19;64.13;;;22.15;;
70322;SDS011;57735;56.264;43.898;2024-03-02T04:18:52;63.58;;;22.38;;
70322;SDS011;57735;56.264;43.898;2024-03-02T04:21:23;60.33;;;23.65;;
70322;SDS011;57735;56.264;43.898;2024-03-02T04:23:54;67.60;;;24.35;;
70322;SDS011;57735;56.264;43.898;2024-03-02T04:26:28;62.78;;;24.75;;
70322;SDS011;57735;56.264;43.898;2024-03-02T04:28:59;65.22;;;23.45;;
70322;SDS011;57735;56.264;43.898;2024-03-02T04:31:30;66.25;;;23.30;;
70322;SDS011;57735;56.264;43.898;2024-03-02T04:34:01;68.07;;;23.20;;
70322;SDS011;57735;56.264;43.898;2024-03-02T04:36:31;55.58;;;22.05;;
70322;SDS011;57735;56.264;43.898;2024-03-02T04:39:02;62.83;;;23.30;;
70322;SDS011;57735;56.264;43.898;2024-03-02T04:41:36;71.63;;;25.27;;
70322;SDS011;57735;56.264;43.898;2024-03-02T04:44:07;68.00;;;23.70;;
70322;SDS011;57735;56.264;43.898;2024-03-02T04:46:38;58.65;;;22.70;;
70322;SDS011;57735;56.264;43.898;2024-03-02T04:49:09;57.67;;;22.67;;
70322;SDS011;57735;56.264;43.898;2024-03-02T04:51:40;69.80;;;22.42;;
70322;SDS011;57735;56.264;43.898;2024-03-02T04:54:11;66.60;;;24.30;;
70322;SDS011;57735;56.264;43.898;2024-03-02T04:56:41;68.45;;;23.50;;
70322;SDS011;57735;56.264;43.898;2024-03-02T04:59:19;80.85;;;28.17;;
70322;SDS011;57735;56.264;43.898;2024-03-02T05:01:50;85.25;;;25.83;;
70322;SDS011;57735;56.264;43.898;2024-03-02T05:04:21;75.00;;;25.17;;
70322;SDS011;57735;56.264;43.898;2024-03-02T05:06:52;76.78;;;28.10;;
70322;SDS011;57735;56.264;43.898;2024-03-02T05:09:28;80.05;;;26.00;;
70322;SDS011;57735;56.264;43.898;2024-03-02T05:11:59;78.05;;;25.73;;
70322;SDS011;57735;56.264;43.898;2024-03-02T05:14:47;77.60;;;27.25;;
70322;SDS011;57735;56.264;43.898;2024-03-02T05:17:18;77.70;;;24.60;;
70322;SDS011;57735;56.264;43.898;2024-03-02T05:19:51;79.53;;;25.88;;
70322;SDS011;57735;56.264;43.898;2024-03-02T05:22:22;69.68;;;25.52;;
70322;SDS011;57735;56.264;43.898;2024-03-02T05:24:57;79.78;;;26.42;;
70322;SDS011;57735;56.264;43.898;2024-03-02T05:27:30;72.07;;;25.85;;
70322;SDS011;57735;56.264;43.898;2024-03-02T05:30:03;73.22;;;26.95;;
70322;SDS011;57735;56.264;43.898;2024-03-02T05:32:36;74.28;;;25.02;;
70322;SDS011;57735;56.264;43.898;2024-03-02T05:35:07;74.95;;;27.15;;
70322;SDS011;57735;56.264;43.898;2024-03-02T05:37:39;79.63;;;26.58;;
70322;SDS011;57735;56.264;43.898;2024-03-02T05:40:09;83.32;;;26.60;;
70322;SDS011;57735;56.264;43.898;2024-03-02T05:42:43;73.10;;;25.45;;
70322;SDS011;57735;56.264;43.898;2024-03-02T05:45:14;67.28;;;24.95;;
70322;SDS011;57735;56.264;43.898;2024-03-02T05:47:46;70.68;;;24.20;;
70322;SDS011;57735;56.264;43.898;2024-03-02T05:50:17;67.20;;;25.02;;
70322;SDS011;57735;56.264;43.898;2024-03-02T05:52:54;63.17;;;22.05;;
70322;SDS011;57735;56.264;43.898;2024-03-02T05:55:26;64.93;;;23.98;;
70322;SDS011;57735;56.264;43.898;2024-03-02T05:57:57;71.95;;;25.10;;
70322;SDS011;57735;56.264;43.898;2024-03-02T06:00:37;70.82;;;25.45;;
70322;SDS011;57735;56.264;43.898;2024-03-02T06:03:07;80.47;;;26.33;;
70322;SDS011;57735;56.264;43.898;2024-03-02T06:05:39;71.82;;;24.83;;
70322;SDS011;57735;56.264;43.898;2024-03-02T06:08:11;66.38;;;25.40;;
70322;SDS011;57735;56.264;43.898;2024-03-02T06:10:41;66.45;;;24.27;;
70322;SDS011;57735;56.264;43.898;2024-03-02T06:13:12;69.90;;;25.40;;
70322;SDS011;57735;56.264;43.898;2024-03-02T06:15:43;71.03;;;24.02;;
70322;SDS011;57735;56.264;43.898;2024-03-02T06:18:17;61.05;;;22.42;;
70322;SDS011;57735;56.264;43.898;2024-03-02T06:20:47;64.82;;;23.17;;
70322;SDS011;57735;56.264;43.898;2024-03-02T06:23:21;66.60;;;24.38;;
70322;SDS011;57735;56.264;43.898;2024-03-02T06:25:51;58.83;;;21.27;;
70322;SDS011;57735;56.264;43.898;2024-03-02T06:28:22;68.13;;;22.45;;
70322;SDS011;57735;56.264;43.898;2024-03-02T06:30:53;57.35;;;19.88;;
70322;SDS011;57735;56.264;43.898;2024-03-02T06:33:24;59.08;;;20.55;;
70322;SDS011;57735;56.264;43.898;2024-03-02T06:35:55;49.42;;;17.85;;
70322;SDS011;57735;56.264;43.898;2024-03-02T06:38:26;44.03;;;17.40;;
70322;SDS011;57735;56.264;43.898;2024-03-02T06:40:56;37.25;;;16.05;;
70322;SDS011;57735;56.264;43.898;2024-03-02T06:43:27;41.85;;;16.67;;
70322;SDS011;57735;56.264;43.898;2024-03-02T06:45:58;49.90;;;17.05;;
70322;SDS011;57735;56.264;43.898;2024-03-02T06:48:29;54.20;;;19.13;;
70322;SDS011;57735;56.264;43.898;2024-03-02T06:51:00;44.58;;;17.13;;
70322;SDS011;57735;56.264;43.898;2024-03-02T06:53:31;47.70;;;18.73;;
70322;SDS011;57735;56.264;43.898;2024-03-02T06:56:04;45.90;;;17.63;;
70322;SDS011;57735;56.264;43.898;2024-03-02T06:58:35;54.58;;;19.60;;
70322;SDS011;57735;56.264;43.898;2024-03-02T07:01:06;50.40;;;19.25;;
70322;SDS011;57735;56.264;43.898;2024-03-02T07:03:36;49.95;;;17.77;;
70322;SDS011;57735;56.264;43.898;2024-03-02T07:06:09;44.95;;;17.42;;
70322;SDS011;57735;56.264;43.898;2024-03-02T07:08:40;48.78;;;19.83;;
70322;SDS011;57735;56.264;43.898;2024-03-02T07:11:11;50.85;;;19.17;;
70322;SDS011;57735;56.264;43.898;2024-03-02T07:13:42;41.53;;;18.17;;
70322;SDS011;57735;56.264;43.898;2024-03-02T07:16:12;55.17;;;20.35;;
70322;SDS011;57735;56.264;43.898;2024-03-02T07:19:00;52.17;;;19.17;;
70322;SDS011;57735;56.264;43.898;2024-03-02T07:21:31;49.33;;;21.23;;
70322;SDS011;57735;56.264;43.898;2024-03-02T07:24:03;66.88;;;23.58;;
70322;SDS011;57735;56.264;43.898;2024-03-02T07:26:34;59.70;;;20.92;;
70322;SDS011;57735;56.264;43.898;2024-03-02T07:29:05;58.17;;;20.88;;
70322;SDS011;57735;56.264;43.898;2024-03-02T07:31:36;56.30;;;20.80;;
70322;SDS011;57735;56.264;43.898;2024-03-02T07:34:07;52.97;;;20.52;;
70322;SDS011;57735;56.264;43.898;2024-03-02T07:36:38;49.20;;;17.45;;
70322;SDS011;57735;56.264;43.898;2024-03-02T07:39:09;51.28;;;19.20;;
70322;SDS011;57735;56.264;43.898;2024-03-02T07:41:40;49.22;;;20.17;;
70322;SDS011;57735;56.264;43.898;2024-03-02T07:44:11;50.88;;;21.02;;
70322;SDS011;57735;56.264;43.898;2024-03-02T07:46:48;51.28;;;20.73;;
70322;SDS011;57735;56.264;43.898;2024-03-02T07:49:22;54.95;;;20.30;;
70322;SDS011;57735;56.264;43.898;2024-03-02T07:51:53;56.55;;;21.13;;
70322;SDS011;57735;56.264;43.898;2024-03-02T07:54:23;52.58;;;20.95;;
70322;SDS011;57735;56.264;43.898;2024-03-02T07:56:54;51.45;;;20.95;;
70322;SDS011;57735;56.264;43.898;2024-03-02T07:59:25;52.25;;;20.30;;
70322;SDS011;57735;56.264;43.898;2024-03-02T08:01:56;57.50;;;22.75;;
70322;SDS011;57735;56.264;43.898;2024-03-02T08:04:29;64.57;;;24.70;;
70322;SDS011;57735;56.264;43.898;2024-03-02T08:07:00;77.32;;;28.23;;
70322;SDS011;57735;56.264;43.898;2024-03-02T08:09:31;68.65;;;24.98;;
70322;SDS011;57735;56.264;43.898;2024-03-02T08:12:02;75.05;;;29.25;;
70322;SDS011;57735;56.264;43.898;2024-03-02T08:14:33;74.43;;;28.27;;
70322;SDS011;57735;56.264;43.898;2024-03-02T08:17:03;69.05;;;27.63;;
70322;SDS011;57735;56.264;43.898;2024-03-02T08:19:39;74.05;;;27.58;;
70322;SDS011;57735;56.264;43.898;2024-03-02T08:22:16;73.30;;;29.83;;
70322;SDS011;57735;56.264;43.898;2024-03-02T08:24:47;80.00;;;29.85;;
70322;SDS011;57735;56.264;43.898;2024-03-02T08:27:18;64.78;;;25.88;;
70322;SDS011;57735;56.264;43.898;2024-03-02T08:29:52;64.20;;;23.75;;
70322;SDS011;57735;56.264;43.898;2024-03-02T08:32:23;63.15;;;25.67;;
70322;SDS011;57735;56.264;43.898;2024-03-02T08:34:54;69.43;;;26.73;;
70322;SDS011;57735;56.264;43.898;2024-03-02T08:37:25;67.07;;;26.30;;
70322;SDS011;57735;56.264;43.898;2024-03-02T08:39:56;67.57;;;25.50;;
70322;SDS011;57735;56.264;43.898;2024-03-02T08:42:26;63.05;;;24.10;;
70322;SDS011;57735;56.264;43.898;2024-03-02T08:44:57;69.57;;;26.17;;
70322;SDS011;57735;56.264;43.898;2024-03-02T08:47:31;73.28;;;28.17;;
70322;SDS011;57735;56.264;43.898;2024-03-02T08:50:02;69.25;;;25.00;;
70322;SDS011;57735;56.264;43.898;2024-03-02T08:52:34;66.07;;;25.73;;
70322;SDS011;57735;56.264;43.898;2024-03-02T08:55:07;69.10;;;27.00;;
70322;SDS011;57735;56.264;43.898;2024-03-02T08:57:39;62.00;;;25.42;;
70322;SDS011;57735;56.264;43.898;2024-03-02T09:00:14;64.97;;;25.63;;
70322;SDS011;57735;56.264;43.898;2024-03-02T09:02:45;60.80;;;24.05;;
70322;SDS011;57735;56.264;43.898;2024-03-02T09:05:18;58.15;;;24.38;;
70322;SDS011;57735;56.264;43.898;2024-03-02T09:07:49;70.53;;;26.00;;
70322;SDS011;57735;56.264;43.898;2024-03-02T09:10:20;67.43;;;26.00;;
70322;SDS011;57735;56.264;43.898;2024-03-02T09:12:51;68.85;;;26.23;;
70322;SDS011;57735;56.264;43.898;2024-03-02T09:15:24;69.78;;;26.48;;
70322;SDS011;57735;56.264;43.898;2024-03-02T09:17:55;75.13;;;25.40;;
70322;SDS011;57735;56.264;43.898;2024-03-02T09:20:26;65.72;;;25.45;;
70322;SDS011;57735;56.264;43.898;2024-03-02T09:22:57;67.00;;;24.80;;
70322;SDS011;57735;56.264;43.898;2024-03-02T09:25:28;61.00;;;23.85;;
70322;SDS011;57735;56.264;43.898;2024-03-02T09:27:59;61.83;;;24.52;;
70322;SDS011;57735;56.264;43.898;2024-03-02T09:30:39;59.65;;;23.58;;
70322;SDS011;57735;56.264;43.898;2024-03-02T09:33:09;58.85;;;24.48;;
70322;SDS011;57735;56.264;43.898;2024-03-02T09:35:40;64.22;;;25.73;;
70322;SDS011;57735;56.264;43.898;2024-03-02T09:38:11;65.63;;;25.40;;
70322;SDS011;57735;56.264;43.898;2024-03-02T09:40:42;63.17;;;25.08;;
70322;SDS011;57735;56.264;43.898;2024-03-02T09:43:13;63.95;;;24.48;;
70322;SDS011;57735;56.264;43.898;2024-03-02T09:45:44;57.38;;;22.05;;
70322;SDS011;57735;56.264;43.898;2024-03-02T09:48:15;58.75;;;21.95;;
70322;SDS011;57735;56.264;43.898;2024-03-02T09:50:48;56.05;;;20.88;;
70322;SDS011;57735;56.264;43.898;2024-03-02T09:53:19;57.50;;;22.60;;
70322;SDS011;57735;56.264;43.898;2024-03-02T09:55:50;59.72;;;22.48;;
70322;SDS011;57735;56.264;43.898;2024-03-02T09:58:21;64.63;;;24.05;;
70322;SDS011;57735;56.264;43.898;2024-03-02T10:00:52;54.58;;;22.23;;
70322;SDS011;57735;56.264;43.898;2024-03-02T10:03:26;52.15;;;21.90;;
70322;SDS011;57735;56.264;43.898;2024-03-02T10:08:51;48.33;;;19.55;;
70322;SDS011;57735;56.264;43.898;2024-03-02T10:14:05;61.20;;;19.88;;
70322;SDS011;57735;56.264;43.898;2024-03-02T10:16:43;47.90;;;20.83;;
70322;SDS011;57735;56.264;43.898;2024-03-02T10:19:18;52.55;;;20.85;;
70322;SDS011;57735;56.264;43.898;2024-03-02T10:21:51;49.92;;;20.60;;
70322;SDS011;57735;56.264;43.898;2024-03-02T10:24:23;60.60;;;22.95;;
70322;SDS011;57735;56.264;43.898;2024-03-02T10:26:54;56.85;;;20.80;;
70322;SDS011;57735;56.264;43.898;2024-03-02T10:29:29;50.88;;;21.17;;
70322;SDS011;57735;56.264;43.898;2024-03-02T10:32:01;52.83;;;21.13;;
70322;SDS011;57735;56.264;43.898;2024-03-02T10:34:32;59.58;;;23.52;;
70322;SDS011;57735;56.264;43.898;2024-03-02T10:37:04;67.35;;;25.77;;
70322;SDS011;57735;56.264;43.898;2024-03-02T10:39:36;58.42;;;23.48;;
70322;SDS011;57735;56.264;43.898;2024-03-02T10:42:10;58.45;;;24.88;;
70322;SDS011;57735;56.264;43.898;2024-03-02T10:44:45;60.92;;;24.58;;
70322;SDS011;57735;56.264;43.898;2024-03-02T10:47:17;69.35;;;27.70;;
70322;SDS011;57735;56.264;43.898;2024-03-02T10:49:50;67.18;;;24.85;;
70322;SDS011;57735;56.264;43.898;2024-03-02T10:52:23;60.78;;;24.98;;
70322;SDS011;57735;56.264;43.898;2024-03-02T10:54:54;65.25;;;23.05;;
70322;SDS011;57735;56.264;43.898;2024-03-02T10:57:25;62.53;;;22.15;;
70322;SDS011;57735;56.264;43.898;2024-03-02T11:00:02;70.57;;;24.55;;
70322;SDS011;57735;56.264;43.898;2024-03-02T11:02:38;62.35;;;23.77;;
70322;SDS011;57735;56.264;43.898;2024-03-02T11:05:10;60.28;;;23.23;;
70322;SDS011;57735;56.264;43.898;2024-03-02T11:07:43;61.67;;;24.50;;
70322;SDS011;57735;56.264;43.898;2024-03-02T11:10:15;62.83;;;23.77;;
70322;SDS011;57735;56.264;43.898;2024-03-02T11:12:59;55.20;;;22.65;;
70322;SDS011;57735;56.264;43.898;2024-03-02T11:15:33;65.97;;;24.98;;
70322;SDS011;57735;56.264;43.898;2024-03-02T11:18:07;62.95;;;24.63;;
70322;SDS011;57735;56.264;43.898;2024-03-02T11:20:42;61.60;;;21.98;;
70322;SDS011;57735;56.264;43.898;2024-03-02T11:23:13;52.63;;;21.23;;
70322;SDS011;57735;56.264;43.898;2024-03-02T11:25:45;59.78;;;21.83;;
70322;SDS011;57735;56.264;43.898;2024-03-02T11:28:17;52.10;;;21.00;;
70322;SDS011;57735;56.264;43.898;2024-03-02T11:31:07;52.15;;;20.65;;
70322;SDS011;57735;56.264;43.898;2024-03-02T11:33:37;44.92;;;19.17;;
70322;SDS011;57735;56.264;43.898;2024-03-02T11:36:09;56.00;;;21.10;;
70322;SDS011;57735;56.264;43.898;2024-03-02T11:38:40;49.53;;;19.98;;
70322;SDS011;57735;56.264;43.898;2024-03-02T11:41:16;48.47;;;19.55;;
70322;SDS011;57735;56.264;43.898;2024-03-02T11:43:48;49.10;;;19.67;;
70322;SDS011;57735;56.264;43.898;2024-03-02T11:46:19;43.30;;;18.50;;
70322;SDS011;57735;56.264;43.898;2024-03-02T11:48:52;45.45;;;18.08;;
70322;SDS011;57735;56.264;43.898;2024-03-02T11:51:23;48.20;;;18.85;;
70322;SDS011;57735;56.264;43.898;2024-03-02T11:54:02;43.78;;;19.17;;
70322;SDS011;57735;56.264;43.898;2024-03-02T11:56:34;50.03;;;18.88;;
70322;SDS011;57735;56.264;43.898;2024-03-02T11:59:05;48.50;;;19.63;;
70322;SDS011;57735;56.264;43.898;2024-03-02T12:01:37;45.85;;;18.92;;
70322;SDS011;57735;56.264;43.898;2024-03-02T12:04:08;47.63;;;19.13;;
70322;SDS011;57735;56.264;43.898;2024-03-02T12:06:40;54.47;;;22.52;;
70322;SDS011;57735;56.264;43.898;2024-03-02T12:09:13;52.42;;;19.85;;
70322;SDS011;57735;56.264;43.898;2024-03-02T12:11:46;48.03;;;19.13;;
70322;SDS011;57735;56.264;43.898;2024-03-02T12:14:17;43.88;;;19.38;;
70322;SDS011;57735;56.264;43.898;2024-03-02T12:16:50;50.75;;;20.23;;
70322;SDS011;57735;56.264;43.898;2024-03-02T12:19:21;49.75;;;19.55;;
70322;SDS011;57735;56.264;43.898;2024-03-02T12:21:58;55.25;;;20.50;;
70322;SDS011;57735;56.264;43.898;2024-03-02T12:24:30;61.13;;;22.80;;
70322;SDS011;57735;56.264;43.898;2024-03-02T12:27:07;57.45;;;21.23;;
70322;SDS011;57735;56.264;43.898;2024-03-02T12:29:38;53.22;;;21.00;;
70322;SDS011;57735;56.264;43.898;2024-03-02T12:32:10;50.95;;;21.15;;
70322;SDS011;57735;56.264;43.898;2024-03-02T12:34:40;60.05;;;23.50;;
70322;SDS011;57735;56.264;43.898;2024-03-02T12:37:12;47.72;;;19.88;;
70322;SDS011;57735;56.264;43.898;2024-03-02T12:39:46;51.65;;;20.58;;
70322;SDS011;57735;56.264;43.898;2024-03-02T12:42:17;49.55;;;20.10;;
70322;SDS011;57735;56.264;43.898;2024-03-02T12:44:48;48.63;;;20.55;;
70322;SDS011;57735;56.264;43.898;2024-03-02T12:47:19;54.92;;;20.98;;
70322;SDS011;57735;56.264;43.898;2024-03-02T12:49:50;49.22;;;20.20;;
70322;SDS011;57735;56.264;43.898;2024-03-02T12:52:22;48.58;;;20.13;;
70322;SDS011;57735;56.264;43.898;2024-03-02T12:54:53;52.17;;;21.83;;
70322;SDS011;57735;56.264;43.898;2024-03-02T12:57:28;52.40;;;19.83;;
70322;SDS011;57735;56.264;43.898;2024-03-02T13:00:04;54.38;;;22.85;;
70322;SDS011;57735;56.264;43.898;2024-03-02T13:02:43;55.42;;;22.20;;
70322;SDS011;57735;56.264;43.898;2024-03-02T13:05:15;55.35;;;20.98;;
70322;SDS011;57735;56.264;43.898;2024-03-02T13:07:49;59.13;;;22.98;;
70322;SDS011;57735;56.264;43.898;2024-03-02T13:10:21;31.80;;;13.70;;
70322;SDS011;57735;56.264;43.898;2024-03-02T13:12:52;37.28;;;15.65;;
70322;SDS011;57735;56.264;43.898;2024-03-02T13:15:23;41.28;;;17.05;;
70322;SDS011;57735;56.264;43.898;2024-03-02T13:17:58;45.25;;;19.35;;
70322;SDS011;57735;56.264;43.898;2024-03-02T13:20:32;50.47;;;20.85;;
70322;SDS011;57735;56.264;43.898;2024-03-02T13:23:03;56.28;;;22.08;;
70322;SDS011;57735;56.264;43.898;2024-03-02T13:25:34;43.42;;;18.52;;
70322;SDS011;57735;56.264;43.898;2024-03-02T13:28:05;43.05;;;19.35;;
70322;SDS011;57735;56.264;43.898;2024-03-02T13:30:37;48.88;;;19.67;;
70322;SDS011;57735;56.264;43.898;2024-03-02T13:33:08;44.47;;;19.48;;
70322;SDS011;57735;56.264;43.898;2024-03-02T13:35:39;46.47;;;19.02;;
70322;SDS011;57735;56.264;43.898;2024-03-02T13:38:10;48.85;;;18.77;;
70322;SDS011;57735;56.264;43.898;2024-03-02T13:40:41;45.85;;;18.67;;
70322;SDS011;57735;56.264;43.898;2024-03-02T13:43:12;48.70;;;19.45;;
70322;SDS011;57735;56.264;43.898;2024-03-02T13:45:43;45.80;;;20.25;;
70322;SDS011;57735;56.264;43.898;2024-03-02T13:48:13;56.72;;;21.58;;
70322;SDS011;57735;56.264;43.898;2024-03-02T13:50:45;55.28;;;21.55;;
70322;SDS011;57735;56.264;43.898;2024-03-02T13:53:16;51.97;;;21.55;;
70322;SDS011;57735;56.264;43.898;2024-03-02T13:55:48;58.50;;;21.67;;
70322;SDS011;57735;56.264;43.898;2024-03-02T13:58:19;57.80;;;22.20;;
70322;SDS011;57735;56.264;43.898;2024-03-02T14:00:51;48.97;;;20.13;;
70322;SDS011;57735;56.264;43.898;2024-03-02T14:03:22;51.65;;;21.05;;
70322;SDS011;57735;56.264;43.898;2024-03-02T14:05:53;53.78;;;22.90;;
70322;SDS011;57735;56.264;43.898;2024-03-02T14:08:25;62.92;;;24.38;;
70322;SDS011;57735;56.264;43.898;2024-03-02T14:10:59;53.92;;;23.15;;
70322;SDS011;57735;56.264;43.898;2024-03-02T14:13:30;53.03;;;22.75;;
70322;SDS011;57735;56.264;43.898;2024-03-02T14:16:01;54.22;;;22.98;;
70322;SDS011;57735;56.264;43.898;2024-03-02T14:18:32;62.85;;;24.27;;
70322;SDS011;57735;56.264;43.898;2024-03-02T14:21:06;51.75;;;21.80;;
70322;SDS011;57735;56.264;43.898;2024-03-02T14:23:36;54.17;;;21.67;;
70322;SDS011;57735;56.264;43.898;2024-03-02T14:26:07;61.40;;;23.00;;
70322;SDS011;57735;56.264;43.898;2024-03-02T14:28:38;58.88;;;23.40;;
70322;SDS011;57735;56.264;43.898;2024-03-02T14:31:09;54.50;;;23.25;;
70322;SDS011;57735;56.264;43.898;2024-03-02T14:33:40;54.83;;;22.77;;
70322;SDS011;57735;56.264;43.898;2024-03-02T14:36:11;55.67;;;22.15;;
70322;SDS011;57735;56.264;43.898;2024-03-02T14:38:45;57.42;;;22.83;;
70322;SDS011;57735;56.264;43.898;2024-03-02T14:41:16;55.50;;;22.77;;
70322;SDS011;57735;56.264;43.898;2024-03-02T14:43:50;54.30;;;22.05;;